sensor_id;sensor_type;location;lat;lon;timestamp;temperature;humidity
6407;DHT22;3236;51.022;6.818;2022-10-23T00:00:33;11.20;99.90
6407;DHT22;3236;51.022;6.818;2022-10-23T00:03:01;11.20;99.90
6407;DHT22;3236;51.022;6.818;2022-10-23T00:05:28;11.40;99.90
6407;DHT22;3236;51.022;6.818;2022-10-23T00:07:57;11.30;99.90
6407;DHT22;3236;51.022;6.818;2022-10-23T00:10:26;11.20;99.90
6407;DHT22;3236;51.022;6.818;2022-10-23T00:12:54;11.10;99.90
6407;DHT22;3236;51.022;6.818;2022-10-23T00:15:23;11.10;99.90
6407;DHT22;3236;51.022;6.818;2022-10-23T00:17:52;11.40;99.90
6407;DHT22;3236;51.022;6.818;2022-10-23T00:20:20;10.90;99.90
6407;DHT22;3236;51.022;6.818;2022-10-23T00:22:50;11.00;99.90
6407;DHT22;3236;51.022;6.818;2022-10-23T00:25:21;10.80;99.90
6407;DHT22;3236;51.022;6.818;2022-10-23T00:27:48;11.00;99.90
6407;DHT22;3236;51.022;6.818;2022-10-23T00:30:16;10.70;99.90
6407;DHT22;3236;51.022;6.818;2022-10-23T00:32:50;11.10;99.90
6407;DHT22;3236;51.022;6.818;2022-10-23T00:35:20;11.20;99.90
6407;DHT22;3236;51.022;6.818;2022-10-23T00:37:47;11.60;99.90
6407;DHT22;3236;51.022;6.818;2022-10-23T00:40:15;11.30;99.90
6407;DHT22;3236;51.022;6.818;2022-10-23T00:45:14;11.20;99.90
6407;DHT22;3236;51.022;6.818;2022-10-23T00:47:42;10.90;99.90
6407;DHT22;3236;51.022;6.818;2022-10-23T00:50:11;11.10;99.90
6407;DHT22;3236;51.022;6.818;2022-10-23T00:52:44;11.20;99.90
6407;DHT22;3236;51.022;6.818;2022-10-23T00:55:11;11.30;99.90
6407;DHT22;3236;51.022;6.818;2022-10-23T00:57:41;11.00;99.90
6407;DHT22;3236;51.022;6.818;2022-10-23T01:00:14;11.30;99.90
6407;DHT22;3236;51.022;6.818;2022-10-23T01:02:42;11.30;99.90
6407;DHT22;3236;51.022;6.818;2022-10-23T01:05:11;11.30;99.90
6407;DHT22;3236;51.022;6.818;2022-10-23T01:07:44;11.50;99.90
6407;DHT22;3236;51.022;6.818;2022-10-23T01:10:16;11.40;99.90
6407;DHT22;3236;51.022;6.818;2022-10-23T01:12:50;11.70;99.90
6407;DHT22;3236;51.022;6.818;2022-10-23T01:15:25;11.60;99.90
6407;DHT22;3236;51.022;6.818;2022-10-23T01:17:57;11.60;99.90
6407;DHT22;3236;51.022;6.818;2022-10-23T01:20:47;11.60;99.90
6407;DHT22;3236;51.022;6.818;2022-10-23T01:23:40;11.30;99.90
6407;DHT22;3236;51.022;6.818;2022-10-23T01:26:33;12.40;99.90
6407;DHT22;3236;51.022;6.818;2022-10-23T01:29:09;11.40;99.90
6407;DHT22;3236;51.022;6.818;2022-10-23T01:31:44;11.40;99.90
6407;DHT22;3236;51.022;6.818;2022-10-23T01:34:15;11.70;99.90
6407;DHT22;3236;51.022;6.818;2022-10-23T01:36:48;11.80;99.90
6407;DHT22;3236;51.022;6.818;2022-10-23T01:39:24;11.60;99.90
6407;DHT22;3236;51.022;6.818;2022-10-23T01:41:56;11.50;99.90
6407;DHT22;3236;51.022;6.818;2022-10-23T01:44:27;11.30;99.90
6407;DHT22;3236;51.022;6.818;2022-10-23T01:46:56;11.60;99.90
6407;DHT22;3236;51.022;6.818;2022-10-23T01:49:24;11.50;99.90
6407;DHT22;3236;51.022;6.818;2022-10-23T01:51:53;12.00;99.90
6407;DHT22;3236;51.022;6.818;2022-10-23T01:54:29;11.60;99.90
6407;DHT22;3236;51.022;6.818;2022-10-23T01:56:58;11.80;99.90
6407;DHT22;3236;51.022;6.818;2022-10-23T01:59:31;11.70;99.90
6407;DHT22;3236;51.022;6.818;2022-10-23T02:02:00;11.40;99.90
6407;DHT22;3236;51.022;6.818;2022-10-23T02:04:35;11.70;99.90
6407;DHT22;3236;51.022;6.818;2022-10-23T02:07:04;11.70;99.90
6407;DHT22;3236;51.022;6.818;2022-10-23T02:12:05;11.70;99.90
6407;DHT22;3236;51.022;6.818;2022-10-23T02:14:42;12.10;99.90
6407;DHT22;3236;51.022;6.818;2022-10-23T02:17:15;12.20;99.90
6407;DHT22;3236;51.022;6.818;2022-10-23T02:19:48;12.40;99.90
6407;DHT22;3236;51.022;6.818;2022-10-23T02:22:21;11.80;99.90
6407;DHT22;3236;51.022;6.818;2022-10-23T02:24:53;12.00;99.90
6407;DHT22;3236;51.022;6.818;2022-10-23T02:27:25;11.50;99.90
6407;DHT22;3236;51.022;6.818;2022-10-23T02:29:59;12.00;99.90
6407;DHT22;3236;51.022;6.818;2022-10-23T02:32:28;12.00;99.90
6407;DHT22;3236;51.022;6.818;2022-10-23T02:34:55;11.90;99.90
6407;DHT22;3236;51.022;6.818;2022-10-23T02:37:26;12.20;99.90
6407;DHT22;3236;51.022;6.818;2022-10-23T02:42:25;12.10;99.90
6407;DHT22;3236;51.022;6.818;2022-10-23T02:45:03;12.50;99.90
6407;DHT22;3236;51.022;6.818;2022-10-23T02:47:45;12.20;99.90
6407;DHT22;3236;51.022;6.818;2022-10-23T02:50:21;12.10;99.90
6407;DHT22;3236;51.022;6.818;2022-10-23T02:52:57;12.40;99.90
6407;DHT22;3236;51.022;6.818;2022-10-23T02:55:33;12.20;99.90
6407;DHT22;3236;51.022;6.818;2022-10-23T02:58:09;12.20;99.90
6407;DHT22;3236;51.022;6.818;2022-10-23T03:00:44;12.40;99.90
6407;DHT22;3236;51.022;6.818;2022-10-23T03:03:19;12.20;99.90
6407;DHT22;3236;51.022;6.818;2022-10-23T03:05:51;12.10;99.90
6407;DHT22;3236;51.022;6.818;2022-10-23T03:10:46;12.40;99.90
6407;DHT22;3236;51.022;6.818;2022-10-23T03:13:13;12.20;99.90
6407;DHT22;3236;51.022;6.818;2022-10-23T03:15:42;12.80;99.90
6407;DHT22;3236;51.022;6.818;2022-10-23T03:18:09;12.20;99.90
6407;DHT22;3236;51.022;6.818;2022-10-23T03:20:39;12.00;99.90
6407;DHT22;3236;51.022;6.818;2022-10-23T03:23:09;12.10;99.90
6407;DHT22;3236;51.022;6.818;2022-10-23T03:25:37;12.20;99.90
6407;DHT22;3236;51.022;6.818;2022-10-23T03:28:07;12.40;99.90
6407;DHT22;3236;51.022;6.818;2022-10-23T03:30:37;12.40;99.90
6407;DHT22;3236;51.022;6.818;2022-10-23T03:33:09;12.40;99.90
6407;DHT22;3236;51.022;6.818;2022-10-23T03:35:36;12.70;99.90
6407;DHT22;3236;51.022;6.818;2022-10-23T03:38:03;12.50;99.90
6407;DHT22;3236;51.022;6.818;2022-10-23T03:40:30;12.20;99.90
6407;DHT22;3236;51.022;6.818;2022-10-23T03:45:25;12.10;99.90
6407;DHT22;3236;51.022;6.818;2022-10-23T03:50:21;11.90;99.90
6407;DHT22;3236;51.022;6.818;2022-10-23T03:52:53;12.20;99.90
6407;DHT22;3236;51.022;6.818;2022-10-23T03:55:21;12.20;99.90
6407;DHT22;3236;51.022;6.818;2022-10-23T03:57:50;12.40;99.90
6407;DHT22;3236;51.022;6.818;2022-10-23T04:00:17;12.40;99.90
6407;DHT22;3236;51.022;6.818;2022-10-23T04:02:45;12.20;99.90
6407;DHT22;3236;51.022;6.818;2022-10-23T04:05:13;11.80;99.90
6407;DHT22;3236;51.022;6.818;2022-10-23T04:07:41;12.50;99.90
6407;DHT22;3236;51.022;6.818;2022-10-23T04:10:09;12.00;99.90
6407;DHT22;3236;51.022;6.818;2022-10-23T04:12:39;12.30;99.90
6407;DHT22;3236;51.022;6.818;2022-10-23T04:15:07;12.20;99.90
6407;DHT22;3236;51.022;6.818;2022-10-23T04:17:35;11.80;99.90
6407;DHT22;3236;51.022;6.818;2022-10-23T04:20:04;12.40;99.90
6407;DHT22;3236;51.022;6.818;2022-10-23T04:22:31;11.80;99.90
6407;DHT22;3236;51.022;6.818;2022-10-23T04:24:59;11.80;99.90
6407;DHT22;3236;51.022;6.818;2022-10-23T04:27:31;11.80;99.90
6407;DHT22;3236;51.022;6.818;2022-10-23T04:29:59;11.90;99.90
6407;DHT22;3236;51.022;6.818;2022-10-23T04:32:28;12.10;99.90
6407;DHT22;3236;51.022;6.818;2022-10-23T04:34:56;11.80;99.90
6407;DHT22;3236;51.022;6.818;2022-10-23T04:37:23;11.70;99.90
6407;DHT22;3236;51.022;6.818;2022-10-23T04:42:19;11.70;99.90
6407;DHT22;3236;51.022;6.818;2022-10-23T04:44:47;11.80;99.90
6407;DHT22;3236;51.022;6.818;2022-10-23T04:47:17;11.80;99.90
6407;DHT22;3236;51.022;6.818;2022-10-23T04:52:12;11.80;99.90
6407;DHT22;3236;51.022;6.818;2022-10-23T04:54:39;11.80;99.90
6407;DHT22;3236;51.022;6.818;2022-10-23T04:57:07;11.80;99.90
6407;DHT22;3236;51.022;6.818;2022-10-23T04:59:36;11.60;99.90
6407;DHT22;3236;51.022;6.818;2022-10-23T05:02:04;11.70;99.90
6407;DHT22;3236;51.022;6.818;2022-10-23T05:04:32;11.70;99.90
6407;DHT22;3236;51.022;6.818;2022-10-23T05:06:59;11.70;99.90
6407;DHT22;3236;51.022;6.818;2022-10-23T05:09:26;12.10;99.90
6407;DHT22;3236;51.022;6.818;2022-10-23T05:12:03;11.90;99.90
6407;DHT22;3236;51.022;6.818;2022-10-23T05:14:30;12.20;99.90
6407;DHT22;3236;51.022;6.818;2022-10-23T05:17:01;11.70;99.90
6407;DHT22;3236;51.022;6.818;2022-10-23T05:19:33;11.70;99.90
6407;DHT22;3236;51.022;6.818;2022-10-23T05:22:01;11.60;99.90
6407;DHT22;3236;51.022;6.818;2022-10-23T05:24:30;11.30;99.90
6407;DHT22;3236;51.022;6.818;2022-10-23T05:26:58;11.80;99.90
6407;DHT22;3236;51.022;6.818;2022-10-23T05:29:25;11.80;99.90
6407;DHT22;3236;51.022;6.818;2022-10-23T05:31:55;11.60;99.90
6407;DHT22;3236;51.022;6.818;2022-10-23T05:34:26;11.50;99.90
6407;DHT22;3236;51.022;6.818;2022-10-23T05:36:55;11.50;99.90
6407;DHT22;3236;51.022;6.818;2022-10-23T05:39:25;11.80;99.90
6407;DHT22;3236;51.022;6.818;2022-10-23T05:41:53;11.50;99.90
6407;DHT22;3236;51.022;6.818;2022-10-23T05:44:23;11.10;99.90
6407;DHT22;3236;51.022;6.818;2022-10-23T05:46:50;11.10;99.90
6407;DHT22;3236;51.022;6.818;2022-10-23T05:49:18;11.70;99.90
6407;DHT22;3236;51.022;6.818;2022-10-23T05:51:47;11.50;99.90
6407;DHT22;3236;51.022;6.818;2022-10-23T05:54:14;11.40;99.90
6407;DHT22;3236;51.022;6.818;2022-10-23T05:56:41;11.60;99.90
6407;DHT22;3236;51.022;6.818;2022-10-23T05:59:09;12.10;99.90
6407;DHT22;3236;51.022;6.818;2022-10-23T06:01:36;12.30;99.90
6407;DHT22;3236;51.022;6.818;2022-10-23T06:04:04;12.10;99.90
6407;DHT22;3236;51.022;6.818;2022-10-23T06:06:31;12.20;99.90
6407;DHT22;3236;51.022;6.818;2022-10-23T06:08:59;12.10;99.90
6407;DHT22;3236;51.022;6.818;2022-10-23T06:11:27;12.50;99.90
6407;DHT22;3236;51.022;6.818;2022-10-23T06:16:23;12.40;99.90
6407;DHT22;3236;51.022;6.818;2022-10-23T06:18:51;12.50;99.90
6407;DHT22;3236;51.022;6.818;2022-10-23T06:21:19;12.20;99.90
6407;DHT22;3236;51.022;6.818;2022-10-23T06:23:46;12.20;99.90
6407;DHT22;3236;51.022;6.818;2022-10-23T06:26:17;12.30;99.90
6407;DHT22;3236;51.022;6.818;2022-10-23T06:28:44;12.60;99.90
6407;DHT22;3236;51.022;6.818;2022-10-23T06:31:13;11.90;99.90
6407;DHT22;3236;51.022;6.818;2022-10-23T06:33:42;12.50;99.90
6407;DHT22;3236;51.022;6.818;2022-10-23T06:36:12;12.50;99.90
6407;DHT22;3236;51.022;6.818;2022-10-23T06:38:40;12.20;99.90
6407;DHT22;3236;51.022;6.818;2022-10-23T06:41:11;12.40;99.90
6407;DHT22;3236;51.022;6.818;2022-10-23T06:43:40;12.90;99.90
6407;DHT22;3236;51.022;6.818;2022-10-23T06:46:08;12.40;99.90
6407;DHT22;3236;51.022;6.818;2022-10-23T06:48:35;12.40;99.90
6407;DHT22;3236;51.022;6.818;2022-10-23T06:51:08;12.80;99.90
6407;DHT22;3236;51.022;6.818;2022-10-23T06:53:36;12.70;99.90
6407;DHT22;3236;51.022;6.818;2022-10-23T06:56:06;12.90;99.90
6407;DHT22;3236;51.022;6.818;2022-10-23T06:58:37;12.80;99.90
6407;DHT22;3236;51.022;6.818;2022-10-23T07:01:07;12.60;99.90
6407;DHT22;3236;51.022;6.818;2022-10-23T07:03:35;12.60;99.90
6407;DHT22;3236;51.022;6.818;2022-10-23T07:06:04;12.80;99.90
6407;DHT22;3236;51.022;6.818;2022-10-23T07:08:32;12.70;99.90
6407;DHT22;3236;51.022;6.818;2022-10-23T07:11:02;12.50;99.90
6407;DHT22;3236;51.022;6.818;2022-10-23T07:13:29;13.40;99.90
6407;DHT22;3236;51.022;6.818;2022-10-23T07:15:57;13.20;99.90
6407;DHT22;3236;51.022;6.818;2022-10-23T07:18:25;13.30;99.90
6407;DHT22;3236;51.022;6.818;2022-10-23T07:20:57;12.80;99.90
6407;DHT22;3236;51.022;6.818;2022-10-23T07:23:24;13.10;99.90
6407;DHT22;3236;51.022;6.818;2022-10-23T07:28:20;13.10;99.90
6407;DHT22;3236;51.022;6.818;2022-10-23T07:30:55;13.30;99.90
6407;DHT22;3236;51.022;6.818;2022-10-23T07:33:22;13.40;99.90
6407;DHT22;3236;51.022;6.818;2022-10-23T07:35:51;13.10;99.90
6407;DHT22;3236;51.022;6.818;2022-10-23T07:38:18;13.30;99.90
6407;DHT22;3236;51.022;6.818;2022-10-23T07:40:45;13.20;99.90
6407;DHT22;3236;51.022;6.818;2022-10-23T07:43:13;13.70;99.90
6407;DHT22;3236;51.022;6.818;2022-10-23T07:45:41;13.50;99.90
6407;DHT22;3236;51.022;6.818;2022-10-23T07:48:09;13.80;99.90
6407;DHT22;3236;51.022;6.818;2022-10-23T07:50:37;14.10;99.90
6407;DHT22;3236;51.022;6.818;2022-10-23T07:53:06;13.90;99.90
6407;DHT22;3236;51.022;6.818;2022-10-23T07:55:33;13.90;99.90
6407;DHT22;3236;51.022;6.818;2022-10-23T08:00:27;14.20;99.90
6407;DHT22;3236;51.022;6.818;2022-10-23T08:02:55;14.50;99.90
6407;DHT22;3236;51.022;6.818;2022-10-23T08:05:22;14.40;99.90
6407;DHT22;3236;51.022;6.818;2022-10-23T08:07:49;14.90;99.90
6407;DHT22;3236;51.022;6.818;2022-10-23T08:10:18;14.70;99.90
6407;DHT22;3236;51.022;6.818;2022-10-23T08:12:45;15.10;99.90
6407;DHT22;3236;51.022;6.818;2022-10-23T08:15:12;15.10;99.90
6407;DHT22;3236;51.022;6.818;2022-10-23T08:20:07;15.60;99.90
6407;DHT22;3236;51.022;6.818;2022-10-23T08:22:35;15.60;99.90
6407;DHT22;3236;51.022;6.818;2022-10-23T08:25:04;15.30;99.90
6407;DHT22;3236;51.022;6.818;2022-10-23T08:27:34;15.50;99.90
6407;DHT22;3236;51.022;6.818;2022-10-23T08:30:06;15.40;99.90
6407;DHT22;3236;51.022;6.818;2022-10-23T08:32:44;15.60;99.90
6407;DHT22;3236;51.022;6.818;2022-10-23T08:35:27;16.30;99.90
6407;DHT22;3236;51.022;6.818;2022-10-23T08:37:54;16.50;99.90
6407;DHT22;3236;51.022;6.818;2022-10-23T08:40:23;15.90;99.90
6407;DHT22;3236;51.022;6.818;2022-10-23T08:42:57;15.90;99.90
6407;DHT22;3236;51.022;6.818;2022-10-23T08:45:31;16.30;99.90
6407;DHT22;3236;51.022;6.818;2022-10-23T08:48:05;16.00;99.90
6407;DHT22;3236;51.022;6.818;2022-10-23T08:50:40;16.00;99.90
6407;DHT22;3236;51.022;6.818;2022-10-23T08:53:14;15.90;99.90
6407;DHT22;3236;51.022;6.818;2022-10-23T08:55:46;16.40;99.90
6407;DHT22;3236;51.022;6.818;2022-10-23T08:58:21;15.90;99.90
6407;DHT22;3236;51.022;6.818;2022-10-23T09:00:50;16.50;99.90
6407;DHT22;3236;51.022;6.818;2022-10-23T09:03:17;16.90;99.90
6407;DHT22;3236;51.022;6.818;2022-10-23T09:05:59;16.40;99.90
6407;DHT22;3236;51.022;6.818;2022-10-23T09:08:42;16.90;99.90
6407;DHT22;3236;51.022;6.818;2022-10-23T09:11:18;16.80;99.90
6407;DHT22;3236;51.022;6.818;2022-10-23T09:14:22;16.30;99.90
6407;DHT22;3236;51.022;6.818;2022-10-23T09:17:01;16.80;99.90
6407;DHT22;3236;51.022;6.818;2022-10-23T09:19:33;17.20;99.90
6407;DHT22;3236;51.022;6.818;2022-10-23T09:22:01;17.10;99.90
6407;DHT22;3236;51.022;6.818;2022-10-23T09:24:28;17.60;99.90
6407;DHT22;3236;51.022;6.818;2022-10-23T09:26:58;17.40;99.90
6407;DHT22;3236;51.022;6.818;2022-10-23T09:29:32;17.70;99.90
6407;DHT22;3236;51.022;6.818;2022-10-23T09:32:03;17.40;99.90
6407;DHT22;3236;51.022;6.818;2022-10-23T09:34:31;17.20;99.90
6407;DHT22;3236;51.022;6.818;2022-10-23T09:37:00;17.30;99.90
6407;DHT22;3236;51.022;6.818;2022-10-23T09:39:30;17.60;99.90
6407;DHT22;3236;51.022;6.818;2022-10-23T09:41:59;18.20;99.90
6407;DHT22;3236;51.022;6.818;2022-10-23T09:44:28;18.80;99.90
6407;DHT22;3236;51.022;6.818;2022-10-23T09:47:09;17.50;99.90
6407;DHT22;3236;51.022;6.818;2022-10-23T09:49:39;17.60;99.90
6407;DHT22;3236;51.022;6.818;2022-10-23T09:52:23;18.10;99.90
6407;DHT22;3236;51.022;6.818;2022-10-23T09:57:27;17.80;99.90
6407;DHT22;3236;51.022;6.818;2022-10-23T10:04:55;18.10;99.90
6407;DHT22;3236;51.022;6.818;2022-10-23T10:07:24;18.00;99.90
6407;DHT22;3236;51.022;6.818;2022-10-23T10:09:52;17.60;99.90
6407;DHT22;3236;51.022;6.818;2022-10-23T10:12:41;17.50;99.90
6407;DHT22;3236;51.022;6.818;2022-10-23T10:15:21;17.60;99.90
6407;DHT22;3236;51.022;6.818;2022-10-23T10:18:00;17.70;99.90
6407;DHT22;3236;51.022;6.818;2022-10-23T10:20:53;18.10;99.90
6407;DHT22;3236;51.022;6.818;2022-10-23T10:23:27;18.00;99.90
6407;DHT22;3236;51.022;6.818;2022-10-23T10:26:01;18.30;99.90
6407;DHT22;3236;51.022;6.818;2022-10-23T10:28:58;18.20;99.90
6407;DHT22;3236;51.022;6.818;2022-10-23T10:34:07;17.80;99.90
6407;DHT22;3236;51.022;6.818;2022-10-23T10:39:10;18.10;99.90
6407;DHT22;3236;51.022;6.818;2022-10-23T10:41:45;17.80;99.90
6407;DHT22;3236;51.022;6.818;2022-10-23T10:47:20;18.40;99.90
6407;DHT22;3236;51.022;6.818;2022-10-23T10:50:04;18.10;99.90
6407;DHT22;3236;51.022;6.818;2022-10-23T10:52:40;17.60;99.90
6407;DHT22;3236;51.022;6.818;2022-10-23T10:55:18;18.30;99.90
6407;DHT22;3236;51.022;6.818;2022-10-23T10:57:56;18.10;99.90
6407;DHT22;3236;51.022;6.818;2022-10-23T11:00:25;18.30;99.90
6407;DHT22;3236;51.022;6.818;2022-10-23T11:03:01;18.00;99.90
6407;DHT22;3236;51.022;6.818;2022-10-23T11:08:03;18.20;99.90
6407;DHT22;3236;51.022;6.818;2022-10-23T11:10:33;18.60;99.90
6407;DHT22;3236;51.022;6.818;2022-10-23T11:13:05;17.80;99.90
6407;DHT22;3236;51.022;6.818;2022-10-23T11:15:39;18.10;99.90
6407;DHT22;3236;51.022;6.818;2022-10-23T11:18:15;17.80;99.90
6407;DHT22;3236;51.022;6.818;2022-10-23T11:21:04;17.50;99.90
6407;DHT22;3236;51.022;6.818;2022-10-23T11:26:42;17.30;99.90
6407;DHT22;3236;51.022;6.818;2022-10-23T11:29:38;17.40;99.90
6407;DHT22;3236;51.022;6.818;2022-10-23T11:32:25;16.90;99.90
6407;DHT22;3236;51.022;6.818;2022-10-23T11:35:09;17.40;99.90
6407;DHT22;3236;51.022;6.818;2022-10-23T11:37:42;17.30;99.90
6407;DHT22;3236;51.022;6.818;2022-10-23T11:40:22;17.30;99.90
6407;DHT22;3236;51.022;6.818;2022-10-23T11:42:50;17.60;99.90
6407;DHT22;3236;51.022;6.818;2022-10-23T11:45:41;18.00;99.90
6407;DHT22;3236;51.022;6.818;2022-10-23T11:48:22;19.10;99.90
6407;DHT22;3236;51.022;6.818;2022-10-23T11:50:52;19.90;99.90
6407;DHT22;3236;51.022;6.818;2022-10-23T11:53:35;20.20;99.90
6407;DHT22;3236;51.022;6.818;2022-10-23T11:56:05;20.10;99.90
6407;DHT22;3236;51.022;6.818;2022-10-23T11:58:50;19.70;99.90
6407;DHT22;3236;51.022;6.818;2022-10-23T12:01:35;19.80;99.90
6407;DHT22;3236;51.022;6.818;2022-10-23T12:04:19;19.90;99.90
6407;DHT22;3236;51.022;6.818;2022-10-23T12:06:50;20.10;99.90
6407;DHT22;3236;51.022;6.818;2022-10-23T12:09:26;20.00;99.90
6407;DHT22;3236;51.022;6.818;2022-10-23T12:12:16;20.50;99.90
6407;DHT22;3236;51.022;6.818;2022-10-23T12:15:19;20.30;99.90
6407;DHT22;3236;51.022;6.818;2022-10-23T12:17:52;20.20;99.90
6407;DHT22;3236;51.022;6.818;2022-10-23T12:20:46;20.40;99.90
6407;DHT22;3236;51.022;6.818;2022-10-23T12:23:43;19.90;99.90
6407;DHT22;3236;51.022;6.818;2022-10-23T12:29:39;20.00;99.90
6407;DHT22;3236;51.022;6.818;2022-10-23T12:32:26;20.00;99.90
6407;DHT22;3236;51.022;6.818;2022-10-23T12:38:09;19.80;99.90
6407;DHT22;3236;51.022;6.818;2022-10-23T12:40:42;19.70;99.90
6407;DHT22;3236;51.022;6.818;2022-10-23T12:43:24;19.50;99.90
6407;DHT22;3236;51.022;6.818;2022-10-23T12:45:55;19.10;99.90
6407;DHT22;3236;51.022;6.818;2022-10-23T12:48:24;19.50;99.90
6407;DHT22;3236;51.022;6.818;2022-10-23T12:50:55;19.80;99.90
6407;DHT22;3236;51.022;6.818;2022-10-23T12:53:27;19.70;99.90
6407;DHT22;3236;51.022;6.818;2022-10-23T12:55:57;18.90;99.90
6407;DHT22;3236;51.022;6.818;2022-10-23T12:58:33;19.40;99.90
6407;DHT22;3236;51.022;6.818;2022-10-23T13:01:04;19.00;99.90
6407;DHT22;3236;51.022;6.818;2022-10-23T13:03:37;19.50;99.90
6407;DHT22;3236;51.022;6.818;2022-10-23T13:06:05;19.10;99.90
6407;DHT22;3236;51.022;6.818;2022-10-23T13:08:36;19.10;99.90
6407;DHT22;3236;51.022;6.818;2022-10-23T13:11:14;19.50;99.90
6407;DHT22;3236;51.022;6.818;2022-10-23T13:13:47;19.40;99.90
6407;DHT22;3236;51.022;6.818;2022-10-23T13:16:16;18.70;99.90
6407;DHT22;3236;51.022;6.818;2022-10-23T13:18:44;19.60;99.90
6407;DHT22;3236;51.022;6.818;2022-10-23T13:21:18;18.90;99.90
6407;DHT22;3236;51.022;6.818;2022-10-23T13:23:49;18.70;99.90
6407;DHT22;3236;51.022;6.818;2022-10-23T13:26:24;18.50;99.90
6407;DHT22;3236;51.022;6.818;2022-10-23T13:29:01;18.80;99.90
6407;DHT22;3236;51.022;6.818;2022-10-23T13:31:33;18.80;99.90
6407;DHT22;3236;51.022;6.818;2022-10-23T13:34:20;19.60;99.90
6407;DHT22;3236;51.022;6.818;2022-10-23T13:37:02;18.50;99.90
6407;DHT22;3236;51.022;6.818;2022-10-23T13:39:34;18.90;99.90
6407;DHT22;3236;51.022;6.818;2022-10-23T13:42:18;19.30;99.90
6407;DHT22;3236;51.022;6.818;2022-10-23T13:47:27;18.10;99.90
6407;DHT22;3236;51.022;6.818;2022-10-23T13:49:54;18.50;99.90
6407;DHT22;3236;51.022;6.818;2022-10-23T13:52:28;18.30;99.90
6407;DHT22;3236;51.022;6.818;2022-10-23T13:54:57;18.30;99.90
6407;DHT22;3236;51.022;6.818;2022-10-23T13:57:27;19.20;99.90
6407;DHT22;3236;51.022;6.818;2022-10-23T13:59:58;18.80;99.90
6407;DHT22;3236;51.022;6.818;2022-10-23T14:02:27;18.30;99.90
6407;DHT22;3236;51.022;6.818;2022-10-23T14:04:56;18.30;99.90
6407;DHT22;3236;51.022;6.818;2022-10-23T14:07:26;19.10;99.90
6407;DHT22;3236;51.022;6.818;2022-10-23T14:09:53;18.70;99.90
6407;DHT22;3236;51.022;6.818;2022-10-23T14:12:22;18.60;99.90
6407;DHT22;3236;51.022;6.818;2022-10-23T14:14:51;18.60;99.90
6407;DHT22;3236;51.022;6.818;2022-10-23T14:17:27;19.00;99.90
6407;DHT22;3236;51.022;6.818;2022-10-23T14:20:01;18.50;99.90
6407;DHT22;3236;51.022;6.818;2022-10-23T14:22:30;18.90;99.90
6407;DHT22;3236;51.022;6.818;2022-10-23T14:25:00;18.20;99.90
6407;DHT22;3236;51.022;6.818;2022-10-23T14:27:30;18.60;99.90
6407;DHT22;3236;51.022;6.818;2022-10-23T14:30:02;18.40;99.90
6407;DHT22;3236;51.022;6.818;2022-10-23T14:32:38;18.50;99.90
6407;DHT22;3236;51.022;6.818;2022-10-23T14:35:07;18.70;99.90
6407;DHT22;3236;51.022;6.818;2022-10-23T14:37:37;18.30;99.90
6407;DHT22;3236;51.022;6.818;2022-10-23T14:40:10;17.90;99.90
6407;DHT22;3236;51.022;6.818;2022-10-23T14:45:12;18.20;99.90
6407;DHT22;3236;51.022;6.818;2022-10-23T14:47:43;18.10;99.90
6407;DHT22;3236;51.022;6.818;2022-10-23T14:50:12;18.00;99.90
6407;DHT22;3236;51.022;6.818;2022-10-23T14:52:43;18.30;99.90
6407;DHT22;3236;51.022;6.818;2022-10-23T14:55:11;17.50;99.90
6407;DHT22;3236;51.022;6.818;2022-10-23T14:57:46;16.60;99.90
6407;DHT22;3236;51.022;6.818;2022-10-23T15:00:16;17.90;99.90
6407;DHT22;3236;51.022;6.818;2022-10-23T15:02:50;17.90;99.90
6407;DHT22;3236;51.022;6.818;2022-10-23T15:05:20;18.10;99.90
6407;DHT22;3236;51.022;6.818;2022-10-23T15:07:49;18.40;99.90
6407;DHT22;3236;51.022;6.818;2022-10-23T15:10:17;17.90;99.90
6407;DHT22;3236;51.022;6.818;2022-10-23T15:12:47;18.10;99.90
6407;DHT22;3236;51.022;6.818;2022-10-23T15:15:17;18.00;99.90
6407;DHT22;3236;51.022;6.818;2022-10-23T15:17:50;17.90;99.90
6407;DHT22;3236;51.022;6.818;2022-10-23T15:20:20;17.70;99.90
6407;DHT22;3236;51.022;6.818;2022-10-23T15:22:50;18.30;99.90
6407;DHT22;3236;51.022;6.818;2022-10-23T15:25:21;17.70;99.90
6407;DHT22;3236;51.022;6.818;2022-10-23T15:27:48;17.50;99.90
6407;DHT22;3236;51.022;6.818;2022-10-23T15:30:16;17.40;99.90
6407;DHT22;3236;51.022;6.818;2022-10-23T15:32:44;16.90;99.90
6407;DHT22;3236;51.022;6.818;2022-10-23T15:35:12;17.10;99.90
6407;DHT22;3236;51.022;6.818;2022-10-23T15:40:08;16.90;99.90
6407;DHT22;3236;51.022;6.818;2022-10-23T15:42:38;16.90;99.90
6407;DHT22;3236;51.022;6.818;2022-10-23T15:47:38;16.70;99.90
6407;DHT22;3236;51.022;6.818;2022-10-23T15:50:06;16.10;99.90
6407;DHT22;3236;51.022;6.818;2022-10-23T15:52:35;16.50;99.90
6407;DHT22;3236;51.022;6.818;2022-10-23T15:55:03;16.60;99.90
6407;DHT22;3236;51.022;6.818;2022-10-23T15:57:30;16.80;99.90
6407;DHT22;3236;51.022;6.818;2022-10-23T15:59:58;16.60;99.90
6407;DHT22;3236;51.022;6.818;2022-10-23T16:02:25;16.30;99.90
6407;DHT22;3236;51.022;6.818;2022-10-23T16:07:20;16.40;99.90
6407;DHT22;3236;51.022;6.818;2022-10-23T16:09:50;16.20;99.90
6407;DHT22;3236;51.022;6.818;2022-10-23T16:14:45;16.30;99.90
6407;DHT22;3236;51.022;6.818;2022-10-23T16:19:40;15.70;99.90
6407;DHT22;3236;51.022;6.818;2022-10-23T16:22:08;15.90;99.90
6407;DHT22;3236;51.022;6.818;2022-10-23T16:24:35;15.90;99.90
6407;DHT22;3236;51.022;6.818;2022-10-23T16:27:04;15.70;99.90
6407;DHT22;3236;51.022;6.818;2022-10-23T16:29:31;15.90;99.90
6407;DHT22;3236;51.022;6.818;2022-10-23T16:31:59;15.80;99.90
6407;DHT22;3236;51.022;6.818;2022-10-23T16:36:54;15.90;99.90
6407;DHT22;3236;51.022;6.818;2022-10-23T16:41:17;15.90;99.90
6407;DHT22;3236;51.022;6.818;2022-10-23T16:46:17;15.90;99.90
6407;DHT22;3236;51.022;6.818;2022-10-23T16:48:45;15.40;99.90
6407;DHT22;3236;51.022;6.818;2022-10-23T16:51:15;15.80;99.90
6407;DHT22;3236;51.022;6.818;2022-10-23T16:53:44;16.20;99.90
6407;DHT22;3236;51.022;6.818;2022-10-23T16:56:13;15.70;99.90
6407;DHT22;3236;51.022;6.818;2022-10-23T16:58:42;15.70;99.90
6407;DHT22;3236;51.022;6.818;2022-10-23T17:01:18;15.80;99.90
6407;DHT22;3236;51.022;6.818;2022-10-23T17:03:49;16.10;99.90
6407;DHT22;3236;51.022;6.818;2022-10-23T17:06:19;15.50;99.90
6407;DHT22;3236;51.022;6.818;2022-10-23T17:08:47;15.80;99.90
6407;DHT22;3236;51.022;6.818;2022-10-23T17:11:22;15.80;99.90
6407;DHT22;3236;51.022;6.818;2022-10-23T17:13:53;16.20;99.90
6407;DHT22;3236;51.022;6.818;2022-10-23T17:16:22;15.70;99.90
6407;DHT22;3236;51.022;6.818;2022-10-23T17:18:50;15.90;99.90
6407;DHT22;3236;51.022;6.818;2022-10-23T17:21:19;15.60;99.90
6407;DHT22;3236;51.022;6.818;2022-10-23T17:23:47;15.50;99.90
6407;DHT22;3236;51.022;6.818;2022-10-23T17:26:16;15.30;99.90
6407;DHT22;3236;51.022;6.818;2022-10-23T17:28:44;15.60;99.90
6407;DHT22;3236;51.022;6.818;2022-10-23T17:31:17;15.70;99.90
6407;DHT22;3236;51.022;6.818;2022-10-23T17:33:45;15.50;99.90
6407;DHT22;3236;51.022;6.818;2022-10-23T17:36:14;15.80;99.90
6407;DHT22;3236;51.022;6.818;2022-10-23T17:38:42;15.40;99.90
6407;DHT22;3236;51.022;6.818;2022-10-23T17:41:20;15.70;99.90
6407;DHT22;3236;51.022;6.818;2022-10-23T17:43:48;15.70;99.90
6407;DHT22;3236;51.022;6.818;2022-10-23T17:46:17;15.70;99.90
6407;DHT22;3236;51.022;6.818;2022-10-23T17:48:44;16.10;99.90
6407;DHT22;3236;51.022;6.818;2022-10-23T17:51:13;15.40;99.90